sensor_id;sensor_type;location;lat;lon;timestamp;P1;durP1;ratioP1;P2;durP2;ratioP2
20375;SDS011;10347;51.828;6.466;2023-04-24T00:01:38;4.35;;;3.83;;
20375;SDS011;10347;51.828;6.466;2023-04-24T00:04:04;5.13;;;3.85;;
20375;SDS011;10347;51.828;6.466;2023-04-24T00:06:31;4.30;;;3.65;;
20375;SDS011;10347;51.828;6.466;2023-04-24T00:09:02;3.95;;;3.65;;
20375;SDS011;10347;51.828;6.466;2023-04-24T00:11:30;4.30;;;3.90;;
20375;SDS011;10347;51.828;6.466;2023-04-24T00:13:56;3.92;;;3.60;;
20375;SDS011;10347;51.828;6.466;2023-04-24T00:16:22;4.68;;;3.38;;
20375;SDS011;10347;51.828;6.466;2023-04-24T00:18:48;3.75;;;3.45;;
20375;SDS011;10347;51.828;6.466;2023-04-24T00:21:14;2.90;;;2.70;;
20375;SDS011;10347;51.828;6.466;2023-04-24T00:23:42;2.97;;;2.60;;
20375;SDS011;10347;51.828;6.466;2023-04-24T00:26:08;2.45;;;2.25;;
20375;SDS011;10347;51.828;6.466;2023-04-24T00:28:34;2.40;;;2.20;;
20375;SDS011;10347;51.828;6.466;2023-04-24T00:31:00;2.00;;;1.80;;
20375;SDS011;10347;51.828;6.466;2023-04-24T00:33:25;2.13;;;2.03;;
20375;SDS011;10347;51.828;6.466;2023-04-24T00:35:51;1.98;;;1.88;;
20375;SDS011;10347;51.828;6.466;2023-04-24T00:38:16;2.00;;;1.90;;
20375;SDS011;10347;51.828;6.466;2023-04-24T00:40:42;1.80;;;1.80;;
20375;SDS011;10347;51.828;6.466;2023-04-24T00:43:08;2.20;;;2.10;;
20375;SDS011;10347;51.828;6.466;2023-04-24T00:45:34;2.00;;;1.90;;
20375;SDS011;10347;51.828;6.466;2023-04-24T00:47:59;2.00;;;1.90;;
20375;SDS011;10347;51.828;6.466;2023-04-24T00:50:25;2.50;;;2.40;;
20375;SDS011;10347;51.828;6.466;2023-04-24T00:52:51;2.65;;;2.55;;
20375;SDS011;10347;51.828;6.466;2023-04-24T00:55:17;2.58;;;2.47;;
20375;SDS011;10347;51.828;6.466;2023-04-24T00:57:43;3.40;;;3.20;;
20375;SDS011;10347;51.828;6.466;2023-04-24T01:00:09;4.85;;;3.78;;
20375;SDS011;10347;51.828;6.466;2023-04-24T01:02:37;5.97;;;5.10;;
20375;SDS011;10347;51.828;6.466;2023-04-24T01:05:10;5.40;;;4.63;;
20375;SDS011;10347;51.828;6.466;2023-04-24T01:07:40;6.97;;;5.15;;
20375;SDS011;10347;51.828;6.466;2023-04-24T01:10:10;6.38;;;5.22;;
20375;SDS011;10347;51.828;6.466;2023-04-24T01:12:37;8.45;;;6.40;;
20375;SDS011;10347;51.828;6.466;2023-04-24T01:15:03;8.90;;;6.15;;
20375;SDS011;10347;51.828;6.466;2023-04-24T01:17:30;8.18;;;6.35;;
20375;SDS011;10347;51.828;6.466;2023-04-24T01:19:56;8.10;;;6.10;;
20375;SDS011;10347;51.828;6.466;2023-04-24T01:22:22;9.32;;;7.32;;
20375;SDS011;10347;51.828;6.466;2023-04-24T01:24:48;9.25;;;7.00;;
20375;SDS011;10347;51.828;6.466;2023-04-24T01:27:13;11.00;;;7.32;;
20375;SDS011;10347;51.828;6.466;2023-04-24T01:29:40;6.82;;;6.13;;
20375;SDS011;10347;51.828;6.466;2023-04-24T01:32:06;7.03;;;6.05;;
20375;SDS011;10347;51.828;6.466;2023-04-24T01:34:32;9.77;;;6.43;;
20375;SDS011;10347;51.828;6.466;2023-04-24T01:36:58;8.70;;;6.97;;
20375;SDS011;10347;51.828;6.466;2023-04-24T01:39:24;9.73;;;7.10;;
20375;SDS011;10347;51.828;6.466;2023-04-24T01:41:50;8.13;;;6.00;;
20375;SDS011;10347;51.828;6.466;2023-04-24T01:44:17;9.75;;;6.70;;
20375;SDS011;10347;51.828;6.466;2023-04-24T01:46:43;7.60;;;5.75;;
20375;SDS011;10347;51.828;6.466;2023-04-24T01:49:08;12.65;;;7.47;;
20375;SDS011;10347;51.828;6.466;2023-04-24T01:51:34;10.32;;;6.97;;
20375;SDS011;10347;51.828;6.466;2023-04-24T01:54:00;8.63;;;6.95;;
20375;SDS011;10347;51.828;6.466;2023-04-24T01:56:25;9.98;;;7.47;;
20375;SDS011;10347;51.828;6.466;2023-04-24T01:58:54;12.10;;;7.30;;
20375;SDS011;10347;51.828;6.466;2023-04-24T02:01:20;9.48;;;7.82;;
20375;SDS011;10347;51.828;6.466;2023-04-24T02:03:46;9.82;;;7.07;;
20375;SDS011;10347;51.828;6.466;2023-04-24T02:06:11;13.73;;;8.00;;
20375;SDS011;10347;51.828;6.466;2023-04-24T02:08:37;12.70;;;7.90;;
20375;SDS011;10347;51.828;6.466;2023-04-24T02:11:03;13.90;;;7.85;;
20375;SDS011;10347;51.828;6.466;2023-04-24T02:13:28;13.60;;;7.05;;
20375;SDS011;10347;51.828;6.466;2023-04-24T02:15:54;10.68;;;8.48;;
20375;SDS011;10347;51.828;6.466;2023-04-24T02:18:19;9.02;;;6.57;;
20375;SDS011;10347;51.828;6.466;2023-04-24T02:20:45;11.65;;;8.00;;
20375;SDS011;10347;51.828;6.466;2023-04-24T02:23:11;12.40;;;8.93;;
20375;SDS011;10347;51.828;6.466;2023-04-24T02:25:38;17.05;;;9.15;;
20375;SDS011;10347;51.828;6.466;2023-04-24T02:28:03;14.95;;;9.18;;
20375;SDS011;10347;51.828;6.466;2023-04-24T02:30:29;16.42;;;8.65;;
20375;SDS011;10347;51.828;6.466;2023-04-24T02:32:54;11.77;;;8.48;;
20375;SDS011;10347;51.828;6.466;2023-04-24T02:35:20;13.20;;;9.20;;
20375;SDS011;10347;51.828;6.466;2023-04-24T02:37:45;12.10;;;8.35;;
20375;SDS011;10347;51.828;6.466;2023-04-24T02:40:11;15.77;;;9.35;;
20375;SDS011;10347;51.828;6.466;2023-04-24T02:42:37;17.45;;;10.20;;
20375;SDS011;10347;51.828;6.466;2023-04-24T02:45:02;12.23;;;8.80;;
20375;SDS011;10347;51.828;6.466;2023-04-24T02:47:28;11.63;;;8.95;;
20375;SDS011;10347;51.828;6.466;2023-04-24T02:49:54;13.77;;;8.73;;
20375;SDS011;10347;51.828;6.466;2023-04-24T02:52:19;15.50;;;9.73;;
20375;SDS011;10347;51.828;6.466;2023-04-24T02:54:45;16.48;;;9.68;;
20375;SDS011;10347;51.828;6.466;2023-04-24T02:57:11;14.85;;;9.75;;
20375;SDS011;10347;51.828;6.466;2023-04-24T02:59:37;14.70;;;10.18;;
20375;SDS011;10347;51.828;6.466;2023-04-24T03:02:02;14.20;;;9.98;;
20375;SDS011;10347;51.828;6.466;2023-04-24T03:04:28;17.65;;;11.30;;
20375;SDS011;10347;51.828;6.466;2023-04-24T03:06:53;15.73;;;10.35;;
20375;SDS011;10347;51.828;6.466;2023-04-24T03:09:20;13.88;;;10.07;;
20375;SDS011;10347;51.828;6.466;2023-04-24T03:11:46;17.48;;;10.43;;
20375;SDS011;10347;51.828;6.466;2023-04-24T03:14:11;17.63;;;11.73;;
20375;SDS011;10347;51.828;6.466;2023-04-24T03:16:37;20.88;;;11.73;;
20375;SDS011;10347;51.828;6.466;2023-04-24T03:19:02;19.75;;;12.00;;
20375;SDS011;10347;51.828;6.466;2023-04-24T03:21:28;19.98;;;13.45;;
20375;SDS011;10347;51.828;6.466;2023-04-24T03:23:54;16.27;;;12.38;;
20375;SDS011;10347;51.828;6.466;2023-04-24T03:26:19;19.02;;;12.98;;
20375;SDS011;10347;51.828;6.466;2023-04-24T03:28:45;17.08;;;11.90;;
20375;SDS011;10347;51.828;6.466;2023-04-24T03:31:10;20.10;;;12.52;;
20375;SDS011;10347;51.828;6.466;2023-04-24T03:33:36;20.10;;;13.60;;
20375;SDS011;10347;51.828;6.466;2023-04-24T03:36:02;17.92;;;11.00;;
20375;SDS011;10347;51.828;6.466;2023-04-24T03:38:27;19.52;;;12.18;;
20375;SDS011;10347;51.828;6.466;2023-04-24T03:40:53;15.80;;;11.70;;
20375;SDS011;10347;51.828;6.466;2023-04-24T03:43:18;20.30;;;12.45;;
20375;SDS011;10347;51.828;6.466;2023-04-24T03:45:44;17.42;;;12.88;;
20375;SDS011;10347;51.828;6.466;2023-04-24T03:48:10;22.50;;;13.63;;
20375;SDS011;10347;51.828;6.466;2023-04-24T03:50:35;16.95;;;12.95;;
20375;SDS011;10347;51.828;6.466;2023-04-24T03:53:01;18.98;;;12.70;;
20375;SDS011;10347;51.828;6.466;2023-04-24T03:55:26;17.48;;;12.90;;
20375;SDS011;10347;51.828;6.466;2023-04-24T03:57:52;22.83;;;13.82;;
20375;SDS011;10347;51.828;6.466;2023-04-24T04:00:17;18.52;;;12.88;;
20375;SDS011;10347;51.828;6.466;2023-04-24T04:02:43;18.17;;;12.05;;
20375;SDS011;10347;51.828;6.466;2023-04-24T04:05:09;17.25;;;11.60;;
20375;SDS011;10347;51.828;6.466;2023-04-24T04:07:34;17.38;;;11.75;;
20375;SDS011;10347;51.828;6.466;2023-04-24T04:10:00;18.13;;;12.48;;
20375;SDS011;10347;51.828;6.466;2023-04-24T04:12:25;23.35;;;13.52;;
20375;SDS011;10347;51.828;6.466;2023-04-24T04:14:51;17.20;;;12.05;;
20375;SDS011;10347;51.828;6.466;2023-04-24T04:17:17;19.55;;;13.07;;
20375;SDS011;10347;51.828;6.466;2023-04-24T04:19:42;21.30;;;12.10;;
20375;SDS011;10347;51.828;6.466;2023-04-24T04:22:08;20.38;;;12.73;;
20375;SDS011;10347;51.828;6.466;2023-04-24T04:24:33;20.90;;;12.73;;
20375;SDS011;10347;51.828;6.466;2023-04-24T04:27:02;16.95;;;11.98;;
20375;SDS011;10347;51.828;6.466;2023-04-24T04:29:29;21.75;;;12.40;;
20375;SDS011;10347;51.828;6.466;2023-04-24T04:31:56;16.23;;;12.25;;
20375;SDS011;10347;51.828;6.466;2023-04-24T04:34:22;16.42;;;11.50;;
20375;SDS011;10347;51.828;6.466;2023-04-24T04:36:48;18.50;;;12.80;;
20375;SDS011;10347;51.828;6.466;2023-04-24T04:39:13;15.95;;;11.93;;
20375;SDS011;10347;51.828;6.466;2023-04-24T04:41:43;20.58;;;11.68;;
20375;SDS011;10347;51.828;6.466;2023-04-24T04:44:09;17.13;;;12.68;;
20375;SDS011;10347;51.828;6.466;2023-04-24T04:46:34;15.82;;;11.23;;
20375;SDS011;10347;51.828;6.466;2023-04-24T04:49:02;17.17;;;11.50;;
20375;SDS011;10347;51.828;6.466;2023-04-24T04:51:28;16.40;;;11.70;;
20375;SDS011;10347;51.828;6.466;2023-04-24T04:53:53;21.67;;;12.05;;
20375;SDS011;10347;51.828;6.466;2023-04-24T04:56:19;20.73;;;12.02;;
20375;SDS011;10347;51.828;6.466;2023-04-24T04:58:45;15.18;;;10.45;;
20375;SDS011;10347;51.828;6.466;2023-04-24T05:01:11;16.27;;;10.95;;
20375;SDS011;10347;51.828;6.466;2023-04-24T05:03:36;15.63;;;10.50;;
20375;SDS011;10347;51.828;6.466;2023-04-24T05:06:02;16.83;;;11.10;;
20375;SDS011;10347;51.828;6.466;2023-04-24T05:08:28;14.23;;;10.30;;
20375;SDS011;10347;51.828;6.466;2023-04-24T05:10:54;16.42;;;10.88;;
20375;SDS011;10347;51.828;6.466;2023-04-24T05:13:20;14.95;;;10.57;;
20375;SDS011;10347;51.828;6.466;2023-04-24T05:15:46;13.05;;;9.68;;
20375;SDS011;10347;51.828;6.466;2023-04-24T05:18:11;12.48;;;9.73;;
20375;SDS011;10347;51.828;6.466;2023-04-24T05:20:37;14.43;;;10.10;;
20375;SDS011;10347;51.828;6.466;2023-04-24T05:23:02;11.93;;;9.43;;
20375;SDS011;10347;51.828;6.466;2023-04-24T05:25:28;13.00;;;8.85;;
20375;SDS011;10347;51.828;6.466;2023-04-24T05:27:57;16.05;;;8.98;;
20375;SDS011;10347;51.828;6.466;2023-04-24T05:30:22;13.85;;;9.85;;
20375;SDS011;10347;51.828;6.466;2023-04-24T05:32:48;14.55;;;9.18;;
20375;SDS011;10347;51.828;6.466;2023-04-24T05:35:13;14.15;;;9.48;;
20375;SDS011;10347;51.828;6.466;2023-04-24T05:37:39;11.70;;;9.15;;
20375;SDS011;10347;51.828;6.466;2023-04-24T05:40:04;15.68;;;10.18;;
20375;SDS011;10347;51.828;6.466;2023-04-24T05:42:31;13.93;;;10.23;;
20375;SDS011;10347;51.828;6.466;2023-04-24T05:44:57;12.25;;;10.05;;
20375;SDS011;10347;51.828;6.466;2023-04-24T05:47:22;14.68;;;9.23;;
20375;SDS011;10347;51.828;6.466;2023-04-24T05:49:48;14.27;;;9.23;;
20375;SDS011;10347;51.828;6.466;2023-04-24T05:52:13;12.80;;;9.25;;
20375;SDS011;10347;51.828;6.466;2023-04-24T05:54:39;9.75;;;8.02;;
20375;SDS011;10347;51.828;6.466;2023-04-24T05:57:04;12.73;;;8.20;;
20375;SDS011;10347;51.828;6.466;2023-04-24T05:59:33;10.27;;;8.25;;
20375;SDS011;10347;51.828;6.466;2023-04-24T06:02:02;9.45;;;7.78;;
20375;SDS011;10347;51.828;6.466;2023-04-24T06:04:27;11.65;;;7.93;;
20375;SDS011;10347;51.828;6.466;2023-04-24T06:06:53;12.10;;;8.63;;
20375;SDS011;10347;51.828;6.466;2023-04-24T06:09:21;10.07;;;7.90;;
20375;SDS011;10347;51.828;6.466;2023-04-24T06:11:47;9.48;;;7.57;;
20375;SDS011;10347;51.828;6.466;2023-04-24T06:14:14;9.77;;;7.60;;
20375;SDS011;10347;51.828;6.466;2023-04-24T06:16:42;12.00;;;7.72;;
20375;SDS011;10347;51.828;6.466;2023-04-24T06:19:08;9.60;;;6.90;;
20375;SDS011;10347;51.828;6.466;2023-04-24T06:21:33;11.98;;;8.20;;
20375;SDS011;10347;51.828;6.466;2023-04-24T06:23:59;9.15;;;7.43;;
20375;SDS011;10347;51.828;6.466;2023-04-24T06:26:24;9.23;;;7.60;;
20375;SDS011;10347;51.828;6.466;2023-04-24T06:28:51;11.15;;;7.68;;
20375;SDS011;10347;51.828;6.466;2023-04-24T06:31:18;9.30;;;7.28;;
20375;SDS011;10347;51.828;6.466;2023-04-24T06:33:45;7.05;;;6.28;;
20375;SDS011;10347;51.828;6.466;2023-04-24T06:36:10;8.73;;;6.80;;
20375;SDS011;10347;51.828;6.466;2023-04-24T06:38:36;8.70;;;6.07;;
20375;SDS011;10347;51.828;6.466;2023-04-24T06:41:02;9.18;;;6.65;;
20375;SDS011;10347;51.828;6.466;2023-04-24T06:43:30;9.93;;;7.20;;
20375;SDS011;10347;51.828;6.466;2023-04-24T06:45:56;10.43;;;7.28;;
20375;SDS011;10347;51.828;6.466;2023-04-24T06:48:23;9.10;;;6.45;;
20375;SDS011;10347;51.828;6.466;2023-04-24T06:50:49;7.88;;;6.05;;
20375;SDS011;10347;51.828;6.466;2023-04-24T06:53:14;9.27;;;6.57;;
20375;SDS011;10347;51.828;6.466;2023-04-24T06:55:40;6.78;;;6.07;;
20375;SDS011;10347;51.828;6.466;2023-04-24T06:58:06;6.43;;;5.82;;
20375;SDS011;10347;51.828;6.466;2023-04-24T07:00:31;7.80;;;5.85;;
20375;SDS011;10347;51.828;6.466;2023-04-24T07:02:57;6.47;;;5.88;;
20375;SDS011;10347;51.828;6.466;2023-04-24T07:05:22;7.03;;;4.97;;
20375;SDS011;10347;51.828;6.466;2023-04-24T07:07:48;5.40;;;4.78;;
20375;SDS011;10347;51.828;6.466;2023-04-24T07:10:14;4.72;;;4.30;;
20375;SDS011;10347;51.828;6.466;2023-04-24T07:12:40;4.32;;;3.92;;
20375;SDS011;10347;51.828;6.466;2023-04-24T07:15:06;4.45;;;3.80;;
20375;SDS011;10347;51.828;6.466;2023-04-24T07:17:33;3.75;;;3.40;;
20375;SDS011;10347;51.828;6.466;2023-04-24T07:19:59;3.38;;;3.10;;
20375;SDS011;10347;51.828;6.466;2023-04-24T07:22:25;3.33;;;2.95;;
20375;SDS011;10347;51.828;6.466;2023-04-24T07:24:51;2.25;;;2.10;;
20375;SDS011;10347;51.828;6.466;2023-04-24T07:27:16;2.42;;;2.30;;
20375;SDS011;10347;51.828;6.466;2023-04-24T07:29:42;2.42;;;2.33;;
20375;SDS011;10347;51.828;6.466;2023-04-24T07:32:07;2.55;;;2.35;;
20375;SDS011;10347;51.828;6.466;2023-04-24T07:34:34;2.55;;;2.35;;
20375;SDS011;10347;51.828;6.466;2023-04-24T07:36:59;2.25;;;2.15;;
20375;SDS011;10347;51.828;6.466;2023-04-24T07:39:25;2.67;;;2.47;;
20375;SDS011;10347;51.828;6.466;2023-04-24T07:41:51;2.42;;;2.33;;
20375;SDS011;10347;51.828;6.466;2023-04-24T07:44:17;2.38;;;2.17;;
20375;SDS011;10347;51.828;6.466;2023-04-24T07:46:42;2.50;;;2.40;;
20375;SDS011;10347;51.828;6.466;2023-04-24T07:49:08;2.80;;;2.60;;
20375;SDS011;10347;51.828;6.466;2023-04-24T07:51:34;3.00;;;2.80;;
20375;SDS011;10347;51.828;6.466;2023-04-24T07:54:03;2.90;;;2.70;;
20375;SDS011;10347;51.828;6.466;2023-04-24T07:56:31;3.47;;;3.17;;
20375;SDS011;10347;51.828;6.466;2023-04-24T07:58:57;3.38;;;3.15;;
20375;SDS011;10347;51.828;6.466;2023-04-24T08:01:22;3.50;;;3.20;;
20375;SDS011;10347;51.828;6.466;2023-04-24T08:03:48;3.55;;;3.25;;
20375;SDS011;10347;51.828;6.466;2023-04-24T08:06:13;3.10;;;2.90;;
20375;SDS011;10347;51.828;6.466;2023-04-24T08:08:39;3.10;;;2.90;;
20375;SDS011;10347;51.828;6.466;2023-04-24T08:11:04;3.70;;;3.40;;
20375;SDS011;10347;51.828;6.466;2023-04-24T08:13:30;3.65;;;3.35;;
20375;SDS011;10347;51.828;6.466;2023-04-24T08:15:56;3.70;;;3.38;;
20375;SDS011;10347;51.828;6.466;2023-04-24T08:18:21;3.05;;;2.85;;
20375;SDS011;10347;51.828;6.466;2023-04-24T08:20:47;3.92;;;3.53;;
20375;SDS011;10347;51.828;6.466;2023-04-24T08:23:13;3.90;;;3.60;;
20375;SDS011;10347;51.828;6.466;2023-04-24T08:25:38;4.22;;;3.75;;
20375;SDS011;10347;51.828;6.466;2023-04-24T08:28:05;3.53;;;3.17;;
20375;SDS011;10347;51.828;6.466;2023-04-24T08:30:33;3.08;;;2.88;;
20375;SDS011;10347;51.828;6.466;2023-04-24T08:32:58;2.30;;;2.20;;
20375;SDS011;10347;51.828;6.466;2023-04-24T08:35:24;2.13;;;2.03;;
20375;SDS011;10347;51.828;6.466;2023-04-24T08:37:52;1.75;;;1.65;;
20375;SDS011;10347;51.828;6.466;2023-04-24T08:40:18;1.30;;;1.30;;
20375;SDS011;10347;51.828;6.466;2023-04-24T08:42:50;1.60;;;1.42;;
20375;SDS011;10347;51.828;6.466;2023-04-24T08:45:20;1.63;;;1.60;;
20375;SDS011;10347;51.828;6.466;2023-04-24T08:47:46;2.63;;;2.40;;
20375;SDS011;10347;51.828;6.466;2023-04-24T08:50:12;3.25;;;2.95;;
20375;SDS011;10347;51.828;6.466;2023-04-24T08:52:38;6.13;;;4.28;;
20375;SDS011;10347;51.828;6.466;2023-04-24T08:55:05;5.78;;;4.53;;
20375;SDS011;10347;51.828;6.466;2023-04-24T08:57:31;6.88;;;4.85;;
20375;SDS011;10347;51.828;6.466;2023-04-24T08:59:58;7.18;;;5.03;;
20375;SDS011;10347;51.828;6.466;2023-04-24T09:02:25;8.27;;;5.30;;
20375;SDS011;10347;51.828;6.466;2023-04-24T09:04:51;6.57;;;5.10;;
20375;SDS011;10347;51.828;6.466;2023-04-24T09:07:18;9.20;;;5.65;;
20375;SDS011;10347;51.828;6.466;2023-04-24T09:09:45;6.55;;;5.28;;
20375;SDS011;10347;51.828;6.466;2023-04-24T09:12:13;5.93;;;4.78;;
20375;SDS011;10347;51.828;6.466;2023-04-24T09:14:39;6.70;;;4.82;;
20375;SDS011;10347;51.828;6.466;2023-04-24T09:17:07;8.90;;;5.55;;
20375;SDS011;10347;51.828;6.466;2023-04-24T09:19:33;7.82;;;5.65;;
20375;SDS011;10347;51.828;6.466;2023-04-24T09:21:58;8.93;;;5.55;;
20375;SDS011;10347;51.828;6.466;2023-04-24T09:24:24;6.72;;;5.05;;
20375;SDS011;10347;51.828;6.466;2023-04-24T09:26:56;6.15;;;4.75;;
20375;SDS011;10347;51.828;6.466;2023-04-24T09:29:23;5.05;;;4.55;;
20375;SDS011;10347;51.828;6.466;2023-04-24T09:31:50;8.30;;;4.97;;
20375;SDS011;10347;51.828;6.466;2023-04-24T09:34:19;7.22;;;4.45;;
20375;SDS011;10347;51.828;6.466;2023-04-24T09:36:50;5.07;;;4.55;;
20375;SDS011;10347;51.828;6.466;2023-04-24T09:39:16;5.95;;;4.93;;
20375;SDS011;10347;51.828;6.466;2023-04-24T09:41:53;5.90;;;4.72;;
20375;SDS011;10347;51.828;6.466;2023-04-24T09:44:22;7.45;;;5.32;;
20375;SDS011;10347;51.828;6.466;2023-04-24T09:46:57;6.22;;;5.15;;
20375;SDS011;10347;51.828;6.466;2023-04-24T09:49:27;5.35;;;4.65;;
20375;SDS011;10347;51.828;6.466;2023-04-24T09:52:15;5.35;;;4.63;;
20375;SDS011;10347;51.828;6.466;2023-04-24T09:54:40;7.88;;;5.45;;
20375;SDS011;10347;51.828;6.466;2023-04-24T09:57:07;5.55;;;4.10;;
20375;SDS011;10347;51.828;6.466;2023-04-24T09:59:34;7.68;;;5.30;;
20375;SDS011;10347;51.828;6.466;2023-04-24T10:02:00;7.40;;;3.90;;
20375;SDS011;10347;51.828;6.466;2023-04-24T10:04:26;9.40;;;4.18;;
20375;SDS011;10347;51.828;6.466;2023-04-24T10:06:54;9.48;;;3.58;;
20375;SDS011;10347;51.828;6.466;2023-04-24T10:09:21;4.97;;;3.13;;
20375;SDS011;10347;51.828;6.466;2023-04-24T10:11:49;6.50;;;3.25;;
20375;SDS011;10347;51.828;6.466;2023-04-24T10:14:17;7.07;;;3.28;;
20375;SDS011;10347;51.828;6.466;2023-04-24T10:16:47;10.80;;;3.60;;
20375;SDS011;10347;51.828;6.466;2023-04-24T10:19:14;7.93;;;3.20;;
20375;SDS011;10347;51.828;6.466;2023-04-24T10:21:41;13.45;;;3.67;;
20375;SDS011;10347;51.828;6.466;2023-04-24T10:24:12;11.15;;;3.60;;
20375;SDS011;10347;51.828;6.466;2023-04-24T10:26:38;11.02;;;3.58;;
20375;SDS011;10347;51.828;6.466;2023-04-24T10:29:05;10.38;;;3.75;;
20375;SDS011;10347;51.828;6.466;2023-04-24T10:31:35;12.32;;;3.83;;
20375;SDS011;10347;51.828;6.466;2023-04-24T10:34:02;11.65;;;3.53;;
20375;SDS011;10347;51.828;6.466;2023-04-24T10:36:29;10.38;;;3.60;;
20375;SDS011;10347;51.828;6.466;2023-04-24T10:38:57;6.75;;;2.88;;
20375;SDS011;10347;51.828;6.466;2023-04-24T10:41:26;12.93;;;3.50;;
20375;SDS011;10347;51.828;6.466;2023-04-24T10:46:33;8.88;;;3.42;;
20375;SDS011;10347;51.828;6.466;2023-04-24T10:48:59;9.15;;;3.15;;
20375;SDS011;10347;51.828;6.466;2023-04-24T10:56:52;15.48;;;4.40;;
20375;SDS011;10347;51.828;6.466;2023-04-24T10:59:27;7.43;;;3.50;;
20375;SDS011;10347;51.828;6.466;2023-04-24T11:01:59;9.23;;;3.15;;
20375;SDS011;10347;51.828;6.466;2023-04-24T11:04:31;9.25;;;3.15;;
20375;SDS011;10347;51.828;6.466;2023-04-24T11:06:57;8.00;;;3.28;;
20375;SDS011;10347;51.828;6.466;2023-04-24T11:09:26;8.40;;;3.67;;
20375;SDS011;10347;51.828;6.466;2023-04-24T11:12:02;7.22;;;3.38;;
20375;SDS011;10347;51.828;6.466;2023-04-24T11:14:31;11.38;;;3.83;;
20375;SDS011;10347;51.828;6.466;2023-04-24T11:17:31;7.43;;;3.60;;
20375;SDS011;10347;51.828;6.466;2023-04-24T11:20:15;9.00;;;3.17;;
20375;SDS011;10347;51.828;6.466;2023-04-24T11:22:42;9.00;;;2.92;;
20375;SDS011;10347;51.828;6.466;2023-04-24T11:25:08;9.27;;;3.08;;
20375;SDS011;10347;51.828;6.466;2023-04-24T11:27:43;8.35;;;3.25;;
20375;SDS011;10347;51.828;6.466;2023-04-24T11:30:11;5.30;;;2.63;;
20375;SDS011;10347;51.828;6.466;2023-04-24T11:32:37;4.55;;;2.22;;
20375;SDS011;10347;51.828;6.466;2023-04-24T11:37:39;6.88;;;2.97;;
20375;SDS011;10347;51.828;6.466;2023-04-24T11:40:07;2.90;;;2.47;;
20375;SDS011;10347;51.828;6.466;2023-04-24T11:42:38;3.25;;;2.35;;
20375;SDS011;10347;51.828;6.466;2023-04-24T11:45:12;4.97;;;2.50;;
20375;SDS011;10347;51.828;6.466;2023-04-24T11:47:46;8.35;;;3.08;;
20375;SDS011;10347;51.828;6.466;2023-04-24T11:50:12;5.35;;;2.40;;
20375;SDS011;10347;51.828;6.466;2023-04-24T11:52:41;5.50;;;2.30;;
20375;SDS011;10347;51.828;6.466;2023-04-24T11:57:39;5.38;;;2.35;;
20375;SDS011;10347;51.828;6.466;2023-04-24T12:00:16;7.25;;;2.45;;
20375;SDS011;10347;51.828;6.466;2023-04-24T12:02:43;5.53;;;1.90;;
20375;SDS011;10347;51.828;6.466;2023-04-24T12:05:18;6.25;;;2.38;;
20375;SDS011;10347;51.828;6.466;2023-04-24T12:07:51;6.75;;;1.95;;
20375;SDS011;10347;51.828;6.466;2023-04-24T12:10:24;4.32;;;1.95;;
20375;SDS011;10347;51.828;6.466;2023-04-24T12:12:51;4.93;;;2.00;;
20375;SDS011;10347;51.828;6.466;2023-04-24T12:15:20;3.75;;;2.00;;
20375;SDS011;10347;51.828;6.466;2023-04-24T12:17:46;7.68;;;1.80;;
20375;SDS011;10347;51.828;6.466;2023-04-24T12:20:13;2.83;;;1.90;;
20375;SDS011;10347;51.828;6.466;2023-04-24T12:22:43;3.33;;;1.88;;
20375;SDS011;10347;51.828;6.466;2023-04-24T12:25:11;3.83;;;1.70;;
20375;SDS011;10347;51.828;6.466;2023-04-24T12:27:37;3.63;;;2.00;;
20375;SDS011;10347;51.828;6.466;2023-04-24T12:30:05;5.55;;;1.65;;
20375;SDS011;10347;51.828;6.466;2023-04-24T12:32:35;2.72;;;1.70;;
20375;SDS011;10347;51.828;6.466;2023-04-24T12:35:06;2.75;;;1.60;;
20375;SDS011;10347;51.828;6.466;2023-04-24T12:37:32;4.28;;;1.70;;
20375;SDS011;10347;51.828;6.466;2023-04-24T12:40:03;1.75;;;1.55;;
20375;SDS011;10347;51.828;6.466;2023-04-24T12:42:31;3.13;;;1.70;;
20375;SDS011;10347;51.828;6.466;2023-04-24T12:44:59;3.85;;;1.60;;
20375;SDS011;10347;51.828;6.466;2023-04-24T12:47:30;3.35;;;1.58;;
20375;SDS011;10347;51.828;6.466;2023-04-24T12:49:56;3.65;;;1.58;;
20375;SDS011;10347;51.828;6.466;2023-04-24T12:52:22;4.72;;;1.40;;
20375;SDS011;10347;51.828;6.466;2023-04-24T12:54:54;4.78;;;1.48;;
20375;SDS011;10347;51.828;6.466;2023-04-24T12:57:21;3.13;;;1.55;;
20375;SDS011;10347;51.828;6.466;2023-04-24T12:59:47;3.55;;;1.67;;
20375;SDS011;10347;51.828;6.466;2023-04-24T13:02:13;2.90;;;1.55;;
20375;SDS011;10347;51.828;6.466;2023-04-24T13:04:42;2.10;;;1.42;;
20375;SDS011;10347;51.828;6.466;2023-04-24T13:07:11;4.63;;;1.63;;
20375;SDS011;10347;51.828;6.466;2023-04-24T13:09:37;3.22;;;1.75;;
20375;SDS011;10347;51.828;6.466;2023-04-24T13:12:03;1.42;;;1.30;;
20375;SDS011;10347;51.828;6.466;2023-04-24T13:14:30;3.28;;;1.35;;
20375;SDS011;10347;51.828;6.466;2023-04-24T13:16:56;3.85;;;1.45;;
20375;SDS011;10347;51.828;6.466;2023-04-24T13:19:23;4.80;;;1.55;;
20375;SDS011;10347;51.828;6.466;2023-04-24T13:21:51;1.65;;;1.52;;
20375;SDS011;10347;51.828;6.466;2023-04-24T13:24:17;4.07;;;1.67;;
20375;SDS011;10347;51.828;6.466;2023-04-24T13:26:42;7.68;;;1.60;;
20375;SDS011;10347;51.828;6.466;2023-04-24T13:29:08;2.80;;;1.38;;
20375;SDS011;10347;51.828;6.466;2023-04-24T13:31:34;4.75;;;1.90;;
20375;SDS011;10347;51.828;6.466;2023-04-24T13:34:00;2.47;;;1.45;;
20375;SDS011;10347;51.828;6.466;2023-04-24T13:36:26;1.98;;;1.50;;
20375;SDS011;10347;51.828;6.466;2023-04-24T13:38:52;2.00;;;1.58;;
20375;SDS011;10347;51.828;6.466;2023-04-24T13:41:17;6.32;;;1.70;;
20375;SDS011;10347;51.828;6.466;2023-04-24T13:43:43;3.22;;;1.70;;
20375;SDS011;10347;51.828;6.466;2023-04-24T13:46:08;3.42;;;1.60;;
20375;SDS011;10347;51.828;6.466;2023-04-24T13:48:34;4.20;;;1.38;;
20375;SDS011;10347;51.828;6.466;2023-04-24T13:51:00;2.95;;;1.50;;
20375;SDS011;10347;51.828;6.466;2023-04-24T13:53:25;2.72;;;1.58;;
20375;SDS011;10347;51.828;6.466;2023-04-24T13:55:51;5.43;;;1.60;;
20375;SDS011;10347;51.828;6.466;2023-04-24T13:58:16;1.88;;;1.48;;
20375;SDS011;10347;51.828;6.466;2023-04-24T14:00:42;4.03;;;1.50;;
20375;SDS011;10347;51.828;6.466;2023-04-24T14:03:08;3.38;;;1.45;;
20375;SDS011;10347;51.828;6.466;2023-04-24T14:05:33;3.53;;;1.40;;
20375;SDS011;10347;51.828;6.466;2023-04-24T14:07:59;1.98;;;1.55;;
20375;SDS011;10347;51.828;6.466;2023-04-24T14:10:25;4.60;;;1.90;;
20375;SDS011;10347;51.828;6.466;2023-04-24T14:12:52;6.10;;;1.90;;
20375;SDS011;10347;51.828;6.466;2023-04-24T14:15:18;4.30;;;1.50;;
20375;SDS011;10347;51.828;6.466;2023-04-24T14:17:44;6.00;;;1.90;;
20375;SDS011;10347;51.828;6.466;2023-04-24T14:20:10;4.53;;;1.60;;
20375;SDS011;10347;51.828;6.466;2023-04-24T14:22:37;3.63;;;1.73;;
20375;SDS011;10347;51.828;6.466;2023-04-24T14:25:03;3.92;;;1.60;;
20375;SDS011;10347;51.828;6.466;2023-04-24T14:27:30;3.50;;;1.80;;
20375;SDS011;10347;51.828;6.466;2023-04-24T14:29:56;3.55;;;1.70;;
20375;SDS011;10347;51.828;6.466;2023-04-24T14:32:22;5.03;;;1.90;;
20375;SDS011;10347;51.828;6.466;2023-04-24T14:34:48;6.60;;;1.60;;
20375;SDS011;10347;51.828;6.466;2023-04-24T14:37:14;4.20;;;1.60;;
20375;SDS011;10347;51.828;6.466;2023-04-24T14:39:40;3.35;;;1.85;;
20375;SDS011;10347;51.828;6.466;2023-04-24T14:42:05;4.47;;;1.90;;
20375;SDS011;10347;51.828;6.466;2023-04-24T14:44:31;3.20;;;1.90;;
20375;SDS011;10347;51.828;6.466;2023-04-24T14:46:57;4.82;;;1.67;;
20375;SDS011;10347;51.828;6.466;2023-04-24T14:49:23;6.50;;;1.90;;
20375;SDS011;10347;51.828;6.466;2023-04-24T14:51:49;9.15;;;2.10;;